Main page
METAR-TAF:

METAR-TAF

Airports :

Anderson Municipal Airport

Anderson, Indiana, United States

latitude: 40-07N, longitude: 085-37W, elevation: 918 ft

Current weather observation

The report was made 50 minutes ago, at 19:59 UTC
Wind 6 mph from the Northwest
Temperature 50°F
Humidity 66%
Pressure 30.04 in. Hg
Visibility: 10 miles
Overcast at a height of 6500 ft

METAR: KAID 011959Z 32005KT 10SM SCT024/ BKN030/ OVC065 10/04 A3004

Time: 16:49 (20:49 UTC)


TAF: missing

Weather observations and forecasts of more than 4000 airports (METAR and TAF reports).

The available stations are represented by yellow and red dots on the map.

Hover mouse over dot to see the name of the station.

Then click to see weather observations and forecasts.

To change the map : click on the green buttons with a black cross to zoom in, on the green button with a dash to zoom out, or on the green arrows for adjacent maps.


METAR-TAF: